Time;durP1;ratioP1;P1;durP2;ratioP2;P2;SDS_P1;SDS_P2;PMS_P1;PMS_P2;Temp;Humidity;BMP_temperature;BMP_pressure;BME280_temperature;BME280_humidity;BME280_pressure;Samples;Min_cycle;Max_cycle;Signal;HPM_P1;HPM_P2
2021/11/27 00:01:11;;;;;;;17.88;12.10;;;;;;;8.88;59.82;98434.41;4790979;29;122827;-84
2021/11/27 00:03:36;;;;;;;19.50;12.55;;;;;;;9.03;60.00;98459.56;4805653;29;120034;-82
2021/11/27 00:06:05;;;;;;;17.73;11.82;;;;;;;9.01;59.37;98447.63;4807116;29;119942;-82
2021/11/27 00:08:31;;;;;;;20.00;12.40;;;;;;;9.06;59.92;98452.38;4780798;29;122879;-81
2021/11/27 00:10:59;;;;;;;18.80;12.13;;;;;;;8.98;59.89;98438.41;4806674;29;120149;-83
2021/11/27 00:13:26;;;;;;;17.63;11.88;;;;;;;9.03;59.37;98456.84;4791684;29;121756;-83
2021/11/27 00:15:53;;;;;;;18.25;11.68;;;;;;;8.98;59.74;98440.41;4806871;29;119906;-80
2021/11/27 00:18:21;;;;;;;17.85;11.55;;;;;;;9.04;59.36;98449.38;4823042;28;120393;-83
2021/11/27 00:21:00;;;;;;;16.20;11.48;;;;;;;8.92;59.50;98437.66;4777503;29;123300;-82
2021/11/27 00:23:29;;;;;;;17.55;11.60;;;;;;;8.98;59.25;98438.41;4812476;29;121334;-83
2021/11/27 00:25:55;;;;;;;16.05;11.45;;;;;;;8.97;59.64;98445.13;4808975;29;120403;-82
2021/11/27 00:28:22;;;;;;;18.30;10.90;;;;;;;9.01;59.01;98445.66;4800001;29;121198;-82
2021/11/27 00:30:50;;;;;;;16.55;10.77;;;;;;;9.00;58.94;98443.41;4798901;29;122247;-83
2021/11/27 00:33:17;;;;;;;17.00;11.50;;;;;;;8.95;59.42;98444.13;4793121;29;120331;-83
2021/11/27 00:35:43;;;;;;;16.77;11.05;;;;;;;8.87;59.32;98430.19;4793271;29;121762;-83
2021/11/27 00:38:09;;;;;;;20.17;11.18;;;;;;;8.87;59.83;98422.00;4800109;29;119964;-81
2021/11/27 00:40:37;;;;;;;16.92;11.48;;;;;;;8.92;59.73;98434.91;4792044;29;122822;-82
2021/11/27 00:43:05;;;;;;;18.27;11.35;;;;;;;8.98;59.32;98432.94;4799829;29;120116;-82
2021/11/27 00:45:31;;;;;;;17.08;11.48;;;;;;;8.96;59.58;98435.44;4811017;29;119901;-80
2021/11/27 00:47:58;;;;;;;17.05;11.65;;;;;;;8.95;59.56;98427.72;4811678;29;119932;-81
2021/11/27 00:50:30;;;;;;;15.50;11.38;;;;;;;8.99;59.96;98439.94;4804394;29;119953;-82
2021/11/27 00:53:01;;;;;;;19.52;13.13;;;;;;;8.96;60.04;98427.22;4773510;29;123928;-82
2021/11/27 00:55:29;;;;;;;17.33;12.05;;;;;;;8.92;59.88;98424.00;4790588;29;121066;-82
2021/11/27 00:57:55;;;;;;;20.55;12.50;;;;;;;8.90;59.68;98426.47;4809904;29;121020;-85
2021/11/27 01:00:26;;;;;;;19.50;11.90;;;;;;;8.98;59.54;98437.66;4811774;29;120870;-82
2021/11/27 01:02:52;;;;;;;17.75;10.70;;;;;;;8.97;59.59;98433.44;4807305;29;120679;-86
2021/11/27 01:05:21;;;;;;;15.80;11.38;;;;;;;8.89;59.72;98422.25;4783701;29;122130;-84
2021/11/27 01:07:47;;;;;;;21.15;11.80;;;;;;;8.88;59.74;98420.75;4776198;29;122447;-85
2021/11/27 01:10:18;;;;;;;18.55;11.77;;;;;;;8.92;59.83;98422.00;4811867;29;120032;-84
2021/11/27 01:12:43;;;;;;;21.02;13.07;;;;;;;9.00;59.75;98433.22;4786858;29;122383;-82
2021/11/27 01:15:13;;;;;;;16.92;11.38;;;;;;;8.97;59.64;98419.75;4795060;29;119566;-85
2021/11/27 01:17:39;;;;;;;18.10;11.32;;;;;;;8.91;59.58;98411.56;4794103;29;122039;-83
2021/11/27 01:20:08;;;;;;;19.17;11.63;;;;;;;9.00;59.51;98425.03;4794565;29;121114;-85
2021/11/27 01:22:34;;;;;;;17.98;11.50;;;;;;;8.90;59.81;98415.53;4807849;29;119646;-82
2021/11/27 01:25:00;;;;;;;18.35;11.07;;;;;;;8.90;59.54;98424.47;4787512;29;121684;-84
2021/11/27 01:27:27;;;;;;;16.92;10.82;;;;;;;8.81;59.67;98413.03;4803565;29;123243;-83
2021/11/27 01:29:53;;;;;;;17.77;10.68;;;;;;;8.86;59.52;98415.78;4778675;29;119841;-84
2021/11/27 01:32:19;;;;;;;16.65;10.70;;;;;;;8.83;59.46;98416.03;4793894;29;120957;-85
2021/11/27 01:34:47;;;;;;;17.63;9.95;;;;;;;8.91;59.69;98425.22;4797832;29;125284;-84
2021/11/27 01:37:13;;;;;;;14.90;9.88;;;;;;;8.90;59.38;98423.72;4821015;28;119753;-83
2021/11/27 01:39:41;;;;;;;14.90;9.95;;;;;;;8.91;59.54;98425.22;4784906;29;122692;-84
2021/11/27 01:42:09;;;;;;;15.20;9.38;;;;;;;8.87;59.93;98416.53;4808249;29;119774;-82
2021/11/27 01:44:34;;;;;;;14.27;8.18;;;;;;;8.92;59.49;98418.53;4806468;29;120762;-83
2021/11/27 01:47:01;;;;;;;13.68;8.05;;;;;;;8.91;59.32;98420.50;4821852;28;119722;-86
2021/11/27 01:49:27;;;;;;;15.48;8.27;;;;;;;8.96;59.22;98419.03;4786716;29;124789;-83
2021/11/27 01:51:53;;;;;;;11.75;8.15;;;;;;;9.00;58.66;98418.81;4809141;29;121779;-82
2021/11/27 01:54:23;;;;;;;13.65;8.95;;;;;;;8.92;59.71;98424.72;4827064;28;122125;-85
2021/11/27 01:56:54;;;;;;;13.60;8.50;;;;;;;8.99;58.97;98428.22;4817706;29;120416;-83
2021/11/27 01:59:26;;;;;;;16.70;9.10;;;;;;;8.96;59.38;98421.75;4828740;28;121043;-83
2021/11/27 02:01:53;;;;;;;14.32;8.48;;;;;;;8.95;58.86;98428.47;4803881;29;119767;-82
2021/11/27 02:04:24;;;;;;;13.93;9.13;;;;;;;8.95;59.13;98435.91;4812640;29;120507;-80
2021/11/27 02:06:54;;;;;;;18.15;9.98;;;;;;;8.90;59.19;98434.66;4798208;29;123002;-82
2021/11/27 02:09:28;;;;;;;15.70;9.75;;;;;;;8.95;59.61;98442.13;4784812;29;119534;-84
2021/11/27 02:11:58;;;;;;;15.27;10.32;;;;;;;8.88;59.61;98437.16;4791552;29;122511;-83
2021/11/27 02:14:24;;;;;;;16.67;9.85;;;;;;;8.90;59.77;98449.09;4817955;29;120175;-83
2021/11/27 02:17:16;;;;;;;16.35;10.93;;;;;;;8.89;59.81;98458.53;4807668;29;119918;-82
2021/11/27 02:19:44;;;;;;;19.75;11.25;;;;;;;8.90;59.18;98453.81;4797374;29;120513;-84
2021/11/27 02:22:12;;;;;;;18.55;11.40;;;;;;;8.88;60.14;98450.81;4792227;29;119779;-83
2021/11/27 02:24:48;;;;;;;15.68;10.38;;;;;;;8.95;59.24;98455.81;4822563;28;121939;-85
2021/11/27 02:27:16;;;;;;;18.85;11.60;;;;;;;8.91;60.35;98444.38;4807066;29;120091;-80
2021/11/27 02:29:44;;;;;;;17.92;11.25;;;;;;;8.99;59.79;98450.09;4789429;29;120272;-84
2021/11/27 02:32:11;;;;;;;17.92;11.07;;;;;;;8.88;59.21;98434.41;4802168;29;122557;-83
2021/11/27 02:34:37;;;;;;;17.83;11.35;;;;;;;8.97;59.34;98445.13;4790320;29;120418;-83
2021/11/27 02:37:06;;;;;;;20.10;11.82;;;;;;;8.91;59.16;98445.09;4804953;29;120794;-86
2021/11/27 02:39:37;;;;;;;17.48;11.18;;;;;;;8.95;59.52;98447.59;4798181;29;123471;-85
2021/11/27 02:42:04;;;;;;;15.88;10.73;;;;;;;8.96;59.59;98449.09;4779991;29;120086;-81
2021/11/27 02:44:32;;;;;;;20.13;11.95;;;;;;;8.99;59.19;98456.34;4791488;29;121913;-86
2021/11/27 02:46:59;;;;;;;19.95;11.90;;;;;;;9.00;59.53;98454.34;4809339;29;120810;-83
2021/11/27 02:49:25;;;;;;;22.52;12.18;;;;;;;8.83;60.32;98433.16;4790103;29;121376;-82
2021/11/27 02:51:52;;;;;;;20.52;12.45;;;;;;;8.87;60.22;98439.13;4803783;29;121794;-82
2021/11/27 02:54:18;;;;;;;18.88;12.02;;;;;;;8.97;59.45;98447.84;4786407;29;122046;-83
2021/11/27 02:56:45;;;;;;;19.00;11.70;;;;;;;8.97;59.56;98447.84;4789900;29;119884;-82
2021/11/27 02:59:20;;;;;;;18.38;11.68;;;;;;;8.97;59.99;98445.13;4795435;29;121896;-83
2021/11/27 03:01:50;;;;;;;20.80;12.63;;;;;;;8.90;59.73;98434.66;4783196;29;123614;-84
2021/11/27 03:04:21;;;;;;;;;;;;;;;8.94;59.99;98448.84;4778526;29;121848;-85
2021/11/27 03:06:47;;;;;;;21.35;12.20;;;;;;;8.91;60.05;98447.09;4805124;29;122931;-85
2021/11/27 03:09:19;;;;;;;19.58;12.18;;;;;;;8.90;59.96;98448.34;4778942;29;121035;-83
2021/11/27 03:11:49;;;;;;;20.90;12.07;;;;;;;8.84;60.00;98445.59;4803640;29;121786;-82
2021/11/27 03:14:19;;;;;;;18.42;11.57;;;;;;;8.84;60.40;98444.84;4808507;29;120039;-84
2021/11/27 03:16:48;;;;;;;21.55;12.18;;;;;;;8.80;60.83;98442.34;4801019;29;120621;-82
2021/11/27 03:19:14;;;;;;;19.77;11.50;;;;;;;8.89;60.14;98455.78;4779302;29;122053;-83
2021/11/27 03:21:41;;;;;;;19.10;12.02;;;;;;;8.90;60.73;98454.56;4818616;28;119913;-85
2021/11/27 03:24:07;;;;;;;21.42;12.88;;;;;;;8.93;60.74;98458.28;4799900;29;119670;-85
2021/11/27 03:26:36;;;;;;;20.92;12.13;;;;;;;8.88;60.03;98445.34;4779601;29;122772;-83
2021/11/27 03:29:02;;;;;;;20.98;12.38;;;;;;;8.98;60.66;98460.28;4820335;28;120661;-85
2021/11/27 03:31:29;;;;;;;21.63;13.02;;;;;;;8.87;61.11;98443.84;4811033;29;121548;-85
2021/11/27 03:33:56;;;;;;;20.77;12.55;;;;;;;8.95;60.46;98449.59;4792512;29;120565;-84
2021/11/27 03:36:21;;;;;;;22.10;13.05;;;;;;;8.96;60.60;98457.28;4805648;29;120042;-84
2021/11/27 03:38:50;;;;;;;19.83;12.43;;;;;;;9.00;60.56;98463.28;4794217;29;119472;-85
2021/11/27 03:41:16;;;;;;;20.42;12.15;;;;;;;8.96;60.46;98457.28;4817820;28;120173;-81
2021/11/27 03:43:44;;;;;;;22.23;12.30;;;;;;;9.02;60.01;98465.53;4819818;28;119880;-84
2021/11/27 03:46:12;;;;;;;26.35;13.50;;;;;;;8.97;60.91;98458.78;4800063;29;120163;-85
2021/11/27 03:48:41;;;;;;;22.85;12.57;;;;;;;9.05;61.21;98456.34;4810738;29;119925;-81
2021/11/27 03:51:29;;;;;;;23.02;13.52;;;;;;;9.02;60.76;98460.81;4803980;29;123169;-83
2021/11/27 03:53:58;;;;;;;22.48;12.38;;;;;;;9.02;60.91;98468.28;4794529;29;122787;-83
2021/11/27 03:56:29;;;;;;;22.45;13.43;;;;;;;9.08;60.80;98482.69;4802750;29;121430;-82
2021/11/27 03:59:01;;;;;;;21.77;12.65;;;;;;;9.05;60.22;98475.47;4809923;29;119871;-84
2021/11/27 04:01:29;;;;;;;24.13;13.40;;;;;;;9.08;60.46;98480.72;4821155;28;120406;-81
2021/11/27 04:03:57;;;;;;;21.15;12.13;;;;;;;9.08;59.92;98480.72;4811703;29;120321;-85
2021/11/27 04:06:26;;;;;;;23.15;13.23;;;;;;;8.96;60.24;98468.22;4802102;29;122926;-82
2021/11/27 04:08:56;;;;;;;21.48;12.70;;;;;;;9.09;60.44;98474.00;4796238;29;119739;-83
2021/11/27 04:11:23;;;;;;;20.15;12.10;;;;;;;9.14;60.17;98481.47;4818498;28;119807;-82
2021/11/27 04:13:52;;;;;;;19.63;12.25;;;;;;;9.11;59.89;98474.25;4793061;29;123849;-86
2021/11/27 04:16:18;;;;;;;20.67;13.20;;;;;;;9.13;60.25;98482.72;4791900;29;119878;-84
2021/11/27 04:18:43;;;;;;;20.95;12.57;;;;;;;9.19;59.67;98480.72;4787384;29;121743;-83
2021/11/27 04:21:12;;;;;;;21.08;12.75;;;;;;;9.20;59.88;98484.22;4810616;29;119834;-83
2021/11/27 04:23:41;;;;;;;19.88;11.90;;;;;;;9.12;59.67;98483.22;4789209;29;120007;-82
2021/11/27 04:26:13;;;;;;;17.60;11.98;;;;;;;9.11;59.51;98482.47;4802399;29;121876;-83
2021/11/27 04:28:44;;;;;;;22.90;12.95;;;;;;;9.20;59.77;98493.16;4806854;29;119947;-85
2021/11/27 04:31:10;;;;;;;19.80;12.63;;;;;;;9.25;59.05;98496.44;4797669;29;119715;-81
2021/11/27 04:33:36;;;;;;;20.23;12.38;;;;;;;9.23;58.88;98494.19;4803797;29;122649;-84
2021/11/27 04:36:04;;;;;;;18.95;12.10;;;;;;;9.26;58.98;98500.66;4769253;29;120084;-83
2021/11/27 04:38:36;;;;;;;;;;;;;;;9.25;59.04;98496.44;4802063;29;120044;-83
2021/11/27 04:41:02;;;;;;;18.05;11.63;;;;;;;9.23;58.92;98505.88;4802850;29;122837;-84
2021/11/27 04:43:28;;;;;;;19.52;12.52;;;;;;;9.21;58.66;98499.38;4795871;29;119962;-84
2021/11/27 04:45:54;;;;;;;18.73;11.07;;;;;;;9.16;59.12;98486.44;4809386;29;119936;-84
2021/11/27 04:48:25;;;;;;;18.70;11.55;;;;;;;9.29;59.21;98502.41;4777347;29;122754;-85
2021/11/27 04:50:54;;;;;;;21.42;12.32;;;;;;;9.22;58.95;98487.94;4805297;29;119730;-82
2021/11/27 04:53:21;;;;;;;20.77;11.52;;;;;;;9.21;59.31;98483.72;4805548;29;123560;-85
2021/11/27 04:55:50;;;;;;;18.73;11.95;;;;;;;9.30;59.55;98492.94;4817338;28;119901;-84
2021/11/27 04:58:18;;;;;;;20.38;11.73;;;;;;;9.34;59.31;98490.72;4801168;29;120435;-83
2021/11/27 05:00:48;;;;;;;20.30;11.68;;;;;;;9.45;58.90;98502.41;4803129;29;119883;-83
2021/11/27 05:03:20;;;;;;;24.58;12.00;;;;;;;9.46;59.42;98497.69;4816788;28;119859;-84
2021/11/27 05:05:46;;;;;;;21.70;12.23;;;;;;;9.46;58.97;98497.69;4795157;29;121791;-83
2021/11/27 05:08:11;;;;;;;21.45;12.50;;;;;;;9.45;59.10;98502.41;4777896;29;122708;-83
2021/11/27 05:10:38;;;;;;;24.40;13.13;;;;;;;9.48;59.08;98512.41;4801996;29;120653;-84
2021/11/27 05:13:04;;;;;;;24.17;14.40;;;;;;;9.52;59.97;98515.63;4808785;29;120995;-83
2021/11/27 05:15:30;;;;;;;24.73;13.68;;;;;;;9.49;60.06;98504.94;4804560;29;119754;-82
2021/11/27 05:18:03;;;;;;;22.25;13.75;;;;;;;9.57;60.29;98516.13;4806161;29;120047;-82
2021/11/27 05:20:48;;;;;;;27.17;14.77;;;;;;;9.56;60.34;98515.38;4814939;28;120275;-84
2021/11/27 05:23:14;;;;;;;27.80;15.90;;;;;;;9.52;60.06;98520.38;4805281;29;119757;-82
2021/11/27 05:25:43;;;;;;;27.27;15.07;;;;;;;9.59;60.72;98522.59;4807851;29;122042;-81
2021/11/27 05:28:27;;;;;;;25.50;14.77;;;;;;;9.58;60.60;98526.59;4819088;28;121603;-84
2021/11/27 05:31:17;;;;;;;25.90;15.82;;;;;;;9.57;60.30;98535.28;4801060;29;121564;-85
2021/11/27 05:33:58;;;;;;;27.25;16.08;;;;;;;9.46;61.17;98511.38;4817659;28;121044;-85
2021/11/27 05:36:27;;;;;;;27.33;15.82;;;;;;;9.58;60.80;98528.56;4807514;29;123069;-83
2021/11/27 05:38:53;;;;;;;27.70;15.40;;;;;;;9.53;61.38;98521.84;4804879;29;123046;-83
2021/11/27 05:41:22;;;;;;;29.40;16.08;;;;;;;9.57;61.31;98530.56;4799320;29;122662;-84
2021/11/27 05:43:48;;;;;;;29.90;16.10;;;;;;;9.57;61.52;98533.31;4806138;29;119468;-80
2021/11/27 05:46:18;;;;;;;29.88;16.35;;;;;;;9.61;61.86;98533.06;4801489;29;119751;-85
2021/11/27 05:48:44;;;;;;;30.27;16.50;;;;;;;9.53;61.46;98519.88;4779512;29;122347;-82
2021/11/27 05:51:30;;;;;;;31.10;15.98;;;;;;;9.64;61.78;98534.78;4803054;29;120167;-85
2021/11/27 05:53:55;;;;;;;27.17;16.55;;;;;;;9.59;61.75;98544.50;4790929;29;121724;-83
2021/11/27 05:56:24;;;;;;;29.48;17.25;;;;;;;9.63;62.24;98533.31;4814190;28;123346;-83
2021/11/27 05:58:49;;;;;;;36.13;17.58;;;;;;;9.61;61.86;98538.53;4807431;29;120253;-84
2021/11/27 06:01:15;;;;;;;29.52;16.70;;;;;;;9.63;61.75;98534.06;4808464;29;120923;-80
2021/11/27 06:03:41;;;;;;;31.45;16.52;;;;;;;9.50;62.13;98515.38;4804979;29;119713;-84
2021/11/27 06:06:07;;;;;;;26.10;16.20;;;;;;;9.59;61.97;98527.34;4787550;29;122177;-85
2021/11/27 06:08:32;;;;;;;28.02;16.45;;;;;;;9.61;62.06;98524.84;4814989;28;123229;-81
2021/11/27 06:10:58;;;;;;;30.63;17.60;;;;;;;9.61;61.86;98533.81;4800855;29;120109;-82
2021/11/27 06:13:24;;;;;;;30.30;16.95;;;;;;;9.64;62.08;98530.06;4803004;29;121915;-81
2021/11/27 06:15:49;;;;;;;28.00;16.13;;;;;;;9.69;61.81;98542.25;4807438;29;120462;-84
2021/11/27 06:18:15;;;;;;;27.50;16.05;;;;;;;9.70;61.95;98544.53;4792441;29;120111;-83
2021/11/27 06:20:41;;;;;;;27.95;16.15;;;;;;;9.68;61.86;98541.50;4821952;28;122502;-85
2021/11/27 06:23:07;;;;;;;25.85;15.88;;;;;;;9.66;61.53;98537.78;4787191;29;120118;-83
2021/11/27 06:25:33;;;;;;;25.90;15.40;;;;;;;9.61;61.60;98531.06;4794542;29;121735;-82
2021/11/27 06:27:59;;;;;;;27.55;15.27;;;;;;;9.69;61.34;98545.75;4799500;29;123544;-83
2021/11/27 06:30:25;;;;;;;24.52;14.68;;;;;;;9.68;61.86;98548.97;4787047;29;119790;-81
2021/11/27 06:32:51;;;;;;;27.52;15.20;;;;;;;9.66;61.81;98552.22;4802956;29;121076;-81
2021/11/27 06:35:17;;;;;;;25.88;14.43;;;;;;;9.60;61.36;98537.03;4798890;29;123822;-81
2021/11/27 06:37:43;;;;;;;25.58;14.75;;;;;;;9.61;61.28;98550.22;4792539;29;120242;-82
2021/11/27 06:40:13;;;;;;;23.27;12.85;;;;;;;9.72;60.97;98568.66;4818505;28;120676;-80
2021/11/27 06:43:01;;;;;;;24.58;13.27;;;;;;;9.66;60.95;98559.69;4810321;29;123141;-85
2021/11/27 06:45:53;;;;;;;24.88;13.27;;;;;;;9.70;60.66;98577.38;4799121;29;122508;-82
2021/11/27 06:48:19;;;;;;;25.00;12.95;;;;;;;9.62;60.36;98568.13;4804865;29;123040;-86
2021/11/27 06:50:45;;;;;;;22.20;13.15;;;;;;;9.60;60.77;98572.63;4804997;29;119837;-82
2021/11/27 06:53:11;;;;;;;21.15;12.73;;;;;;;9.59;60.40;98571.13;4790974;29;122440;-83
2021/11/27 06:55:39;;;;;;;21.17;12.85;;;;;;;9.64;60.11;98590.28;4790127;29;123260;-83
2021/11/27 06:58:05;;;;;;;23.70;13.57;;;;;;;9.59;60.34;98585.56;4782478;29;121159;-82
2021/11/27 07:00:34;;;;;;;25.35;13.60;;;;;;;9.65;60.28;98591.03;4805266;29;121369;-82
2021/11/27 07:03:18;;;;;;;21.55;12.57;;;;;;;9.59;60.20;98591.03;4812472;29;122946;-80
2021/11/27 07:06:03;;;;;;;22.60;13.43;;;;;;;9.55;60.46;98585.06;4806321;29;120437;-84
2021/11/27 07:08:31;;;;;;;21.42;12.55;;;;;;;9.62;60.25;98598.25;4811172;29;120484;-81
2021/11/27 07:11:23;;;;;;;23.67;12.55;;;;;;;9.59;59.35;98593.75;4789248;29;120801;-79
2021/11/27 07:13:49;;;;;;;23.15;12.52;;;;;;;9.58;60.03;98597.75;4811520;29;119614;-81
2021/11/27 07:16:15;;;;;;;21.77;13.18;;;;;;;9.62;59.60;98614.66;4796377;29;121209;-83
2021/11/27 07:18:44;;;;;;;21.55;12.48;;;;;;;9.63;59.90;98616.16;4804894;29;119787;-82
2021/11/27 07:21:09;;;;;;;23.08;12.75;;;;;;;9.63;59.54;98616.16;4809131;29;120947;-81
2021/11/27 07:23:37;;;;;;;22.75;12.43;;;;;;;9.64;59.94;98616.91;4794094;29;123931;-83
2021/11/27 07:26:03;;;;;;;20.98;12.25;;;;;;;9.60;59.35;98619.88;4808247;29;119866;-80
2021/11/27 07:28:51;;;;;;;22.05;11.88;;;;;;;9.66;59.60;98631.59;4805219;29;121309;-82
2021/11/27 07:31:17;;;;;;;19.73;12.18;;;;;;;9.64;59.00;98631.34;4810765;29;119722;-80
2021/11/27 07:33:46;;;;;;;18.20;11.07;;;;;;;9.62;59.55;98622.88;4804614;29;120957;-83
2021/11/27 07:36:12;;;;;;;19.17;11.10;;;;;;;9.60;59.30;98627.34;4794791;29;123231;-80
2021/11/27 07:38:38;;;;;;;18.85;11.90;;;;;;;9.63;59.37;98627.09;4796381;29;119932;-81
2021/11/27 07:41:04;;;;;;;20.88;12.07;;;;;;;9.69;59.54;98641.56;4795847;29;121846;-82
2021/11/27 07:43:37;;;;;;;19.55;11.88;;;;;;;9.63;59.40;98632.59;4807530;29;120572;-82
2021/11/27 07:46:06;;;;;;;19.35;12.48;;;;;;;9.70;59.73;98642.31;4780483;29;120722;-81
2021/11/27 07:48:51;;;;;;;18.17;11.60;;;;;;;9.68;59.69;98639.31;4812833;29;121382;-79
2021/11/27 07:51:38;;;;;;;19.88;12.68;;;;;;;9.64;60.18;98645.03;4805507;29;120031;-78
2021/11/27 07:54:08;;;;;;;22.58;13.57;;;;;;;9.65;60.04;98641.03;4786565;29;122104;-79
2021/11/27 07:56:33;;;;;;;20.77;13.00;;;;;;;9.69;60.05;98641.56;4785668;29;123233;-82
2021/11/27 07:59:00;;;;;;;19.00;12.45;;;;;;;9.73;59.88;98653.03;4794736;29;119826;-83
2021/11/27 08:01:25;;;;;;;22.73;12.65;;;;;;;9.70;60.35;98651.28;4803302;29;122476;-82
2021/11/27 08:03:51;;;;;;;19.33;12.60;;;;;;;9.72;60.16;98657.00;4803591;29;119933;-77
2021/11/27 08:06:17;;;;;;;20.20;12.50;;;;;;;9.73;60.34;98660.50;4801145;29;120477;-81
2021/11/27 08:08:42;;;;;;;21.55;13.07;;;;;;;9.69;60.86;98660.72;4803339;29;120056;-80
2021/11/27 08:11:11;;;;;;;25.70;14.68;;;;;;;9.72;60.80;98672.69;4825210;28;120033;-82
2021/11/27 08:13:37;;;;;;;21.67;13.60;;;;;;;9.77;60.72;98678.19;4804804;29;119805;-80
2021/11/27 08:16:04;;;;;;;24.20;13.88;;;;;;;9.66;60.87;98663.69;4805773;29;119948;-80
2021/11/27 08:18:29;;;;;;;25.67;14.25;;;;;;;9.71;60.67;98677.41;4803789;29;122158;-81
2021/11/27 08:20:55;;;;;;;22.45;14.25;;;;;;;9.70;60.59;98681.41;4807167;29;119913;-81
2021/11/27 08:23:21;;;;;;;22.00;13.90;;;;;;;9.64;60.38;98680.59;4821101;28;122144;-83
2021/11/27 08:25:46;;;;;;;24.33;15.30;;;;;;;9.59;60.72;98678.59;4802314;29;120773;-81
2021/11/27 08:28:16;;;;;;;26.60;16.00;;;;;;;9.60;61.19;98688.31;4819087;28;122606;-82
2021/11/27 08:30:44;;;;;;;24.98;15.02;;;;;;;9.60;61.09;98690.31;4803396;29;121550;-79
2021/11/27 08:33:10;;;;;;;28.25;15.98;;;;;;;9.61;61.54;98691.78;4822385;28;119648;-82
2021/11/27 08:35:35;;;;;;;26.73;15.00;;;;;;;9.58;61.72;98690.78;4810207;29;121319;-80
2021/11/27 08:38:01;;;;;;;23.45;15.55;;;;;;;9.56;61.45;98676.09;4807626;29;121840;-84
2021/11/27 08:40:27;;;;;;;26.10;15.52;;;;;;;9.56;61.77;98685.06;4808949;29;119880;-81
2021/11/27 08:42:58;;;;;;;23.00;14.52;;;;;;;9.59;61.78;98686.06;4819765;28;122871;-82
2021/11/27 08:45:25;;;;;;;23.38;14.98;;;;;;;9.58;60.95;98701.75;4807410;29;119463;-79
2021/11/27 08:47:51;;;;;;;29.30;16.80;;;;;;;9.50;61.58;98687.03;4804375;29;119806;-81
2021/11/27 08:50:17;;;;;;;25.85;15.48;;;;;;;9.55;61.35;98697.25;4807876;29;122363;-83
2021/11/27 08:52:43;;;;;;;28.48;15.95;;;;;;;9.63;61.74;98698.28;4791857;29;120232;-83
2021/11/27 08:55:09;;;;;;;27.92;16.65;;;;;;;9.55;61.53;98686.31;4814642;29;120235;-83
2021/11/27 08:57:34;;;;;;;25.83;17.15;;;;;;;9.63;61.62;98706.50;4806773;29;120016;-81
2021/11/27 09:00:00;;;;;;;27.45;15.68;;;;;;;9.65;61.85;98695.78;4795828;29;121158;-83
2021/11/27 09:02:27;;;;;;;26.05;16.23;;;;;;;9.58;61.75;98690.03;4805680;29;120974;-82
2021/11/27 09:04:52;;;;;;;25.25;15.30;;;;;;;9.62;61.84;98699.50;4804215;29;119596;-81
2021/11/27 09:07:19;;;;;;;21.05;13.90;;;;;;;9.66;61.41;98710.97;4808866;29;119792;-83
2021/11/27 09:09:47;;;;;;;21.58;14.05;;;;;;;9.61;61.61;98706.22;4806399;29;120219;-83
2021/11/27 09:12:18;;;;;;;22.65;13.38;;;;;;;9.59;61.50;98703.25;4806441;29;119540;-81
2021/11/27 09:14:44;;;;;;;24.15;14.32;;;;;;;9.54;61.63;98701.22;4825496;28;122325;-80
2021/11/27 09:17:11;;;;;;;22.65;14.23;;;;;;;9.57;61.98;98711.19;4810839;29;120279;-77
2021/11/27 09:19:37;;;;;;;22.20;14.45;;;;;;;9.62;61.43;98718.66;4811870;29;122445;-82
2021/11/27 09:22:06;;;;;;;22.15;14.60;;;;;;;9.65;62.31;98712.22;4819788;28;119881;-81
2021/11/27 09:24:32;;;;;;;22.10;14.27;;;;;;;9.65;61.47;98712.22;4778857;29;120209;-84
2021/11/27 09:26:57;;;;;;;23.67;14.15;;;;;;;9.67;61.53;98708.97;4811826;29;119505;-85
2021/11/27 09:29:23;;;;;;;24.67;14.60;;;;;;;9.79;61.44;98722.25;4816014;29;120371;-84
2021/11/27 09:31:49;;;;;;;22.67;14.23;;;;;;;9.81;61.52;98725.22;4809855;29;119490;-87
2021/11/27 09:34:15;;;;;;;21.20;14.20;;;;;;;9.87;61.19;98727.25;4813015;29;122106;-84
2021/11/27 09:36:43;;;;;;;24.83;14.23;;;;;;;9.89;61.19;98730.22;4806205;29;120576;-81
2021/11/27 09:39:10;;;;;;;24.85;15.52;;;;;;;9.94;61.92;98729.53;4806313;29;120632;-80
2021/11/27 09:41:39;;;;;;;22.30;14.75;;;;;;;9.96;62.00;98725.03;4808391;29;123139;-81
2021/11/27 09:44:05;;;;;;;23.70;14.52;;;;;;;10.00;61.92;98724.81;4806108;29;119547;-80
2021/11/27 09:46:34;;;;;;;23.45;15.02;;;;;;;10.00;62.06;98730.28;4792985;29;119902;-81
2021/11/27 09:49:05;;;;;;;23.20;13.90;;;;;;;10.07;61.37;98735.28;4794765;29;122837;-83
2021/11/27 09:51:34;;;;;;;22.48;13.95;;;;;;;10.06;61.71;98722.81;4786831;29;119452;-84
2021/11/27 09:54:02;;;;;;;23.90;14.35;;;;;;;10.15;61.38;98736.28;4774963;29;121981;-82
2021/11/27 09:56:28;;;;;;;23.63;13.65;;;;;;;10.12;61.76;98731.81;4781745;29;123185;-83
2021/11/27 09:58:55;;;;;;;22.17;13.70;;;;;;;10.15;61.55;98728.06;4770989;29;120143;-84
2021/11/27 10:01:28;;;;;;;21.95;13.52;;;;;;;10.25;61.75;98740.34;4800459;29;121848;-82
2021/11/27 10:04:03;;;;;;;25.23;14.27;;;;;;;10.29;61.69;98746.31;4801275;29;120555;-82
2021/11/27 10:06:41;;;;;;;22.40;13.75;;;;;;;10.18;61.03;98727.09;4783962;29;121762;-82
2021/11/27 10:09:13;;;;;;;25.63;13.23;;;;;;;10.34;61.37;98747.56;4791374;29;121434;-85
2021/11/27 10:11:41;;;;;;;22.95;13.93;;;;;;;10.31;61.38;98732.88;4777295;29;120959;-81
2021/11/27 10:14:07;;;;;;;26.73;14.55;;;;;;;10.25;61.02;98720.41;4801222;29;121938;-82
2021/11/27 10:16:37;;;;;;;25.60;14.38;;;;;;;10.35;61.70;98738.84;4792297;29;120166;-79
2021/11/27 10:19:10;;;;;;;26.83;14.90;;;;;;;10.31;61.72;98738.34;4780196;29;119816;-80
2021/11/27 10:21:39;;;;;;;23.70;14.30;;;;;;;10.35;61.28;98747.09;4766051;29;124156;-83
2021/11/27 10:24:24;;;;;;;25.92;15.10;;;;;;;10.35;61.13;98746.34;4791816;29;119832;-83
2021/11/27 10:26:50;;;;;;;23.05;14.88;;;;;;;10.30;61.62;98747.81;4794711;29;119779;-82
2021/11/27 10:29:32;;;;;;;24.00;15.27;;;;;;;10.33;61.29;98751.56;4794613;29;123352;-85
2021/11/27 10:32:14;;;;;;;22.73;14.18;;;;;;;10.26;61.04;98746.56;4796897;29;120286;-83
2021/11/27 10:34:54;;;;;;;25.90;15.57;;;;;;;10.29;61.34;98754.53;4812456;29;121447;-86
2021/11/27 10:37:38;;;;;;;27.90;15.52;;;;;;;10.20;61.52;98743.03;4777866;29;123107;-84
2021/11/27 10:40:28;;;;;;;25.42;14.98;;;;;;;10.25;61.75;98762.25;4787588;29;121258;-84
2021/11/27 10:42:57;;;;;;;25.88;15.60;;;;;;;10.26;61.76;98755.53;4795387;29;122021;-82
2021/11/27 10:45:28;;;;;;;24.45;14.48;;;;;;;10.29;61.27;98762.03;4807976;29;122736;-83
2021/11/27 10:48:13;;;;;;;20.88;13.68;;;;;;;10.32;61.31;98766.50;4793596;29;121788;-83
2021/11/27 10:51:05;;;;;;;23.17;13.27;;;;;;;10.29;61.60;98762.75;4808259;28;120057;-85
2021/11/27 10:53:37;;;;;;;21.25;13.05;;;;;;;10.29;61.26;98762.75;4792117;29;120055;-84
2021/11/27 10:56:08;;;;;;;20.30;12.20;;;;;;;10.24;61.31;98766.25;4806768;28;120582;-86
2021/11/27 10:58:56;;;;;;;19.50;12.48;;;;;;;10.23;61.33;98764.75;4793578;29;121415;-82
2021/11/27 11:01:23;;;;;;;16.17;10.43;;;;;;;10.13;61.11;98766.91;4808869;28;119794;-84
2021/11/27 11:03:49;;;;;;;18.23;11.30;;;;;;;10.07;61.44;98765.41;4809141;28;122015;-85
2021/11/27 11:06:22;;;;;;;20.73;11.10;;;;;;;10.18;62.01;98773.69;4809928;28;120224;-86
2021/11/27 11:08:50;;;;;;;16.08;9.98;;;;;;;10.17;61.35;98777.63;4782658;29;120121;-86
2021/11/27 11:11:25;;;;;;;17.48;10.88;;;;;;;10.16;61.62;98781.63;4793613;29;123036;-83
2021/11/27 11:13:54;;;;;;;15.82;9.30;;;;;;;10.17;61.91;98777.63;4789607;29;120226;-86
2021/11/27 11:16:27;;;;;;;16.38;9.52;;;;;;;10.15;61.21;98769.91;4793486;29;121848;-81
2021/11/27 11:19:16;;;;;;;14.30;9.57;;;;;;;10.18;61.54;98768.19;4792870;29;120434;-81
2021/11/27 11:22:06;;;;;;;16.63;10.63;;;;;;;10.21;61.54;98766.50;4794873;29;120973;-86
2021/11/27 11:24:36;;;;;;;15.60;9.82;;;;;;;10.17;62.09;98761.19;4809679;28;121174;-83
2021/11/27 11:27:07;;;;;;;17.83;9.60;;;;;;;10.21;62.29;98761.75;4794555;29;123061;-83